createdAt,value
2018-04-28T00:01:02.744Z,12.69
2018-04-28T00:03:28.728Z,12.64
2018-04-28T00:05:54.483Z,12.58
2018-04-28T00:08:22.211Z,12.50
2018-04-28T00:10:47.979Z,12.43
2018-04-28T00:13:13.762Z,12.38
2018-04-28T00:15:39.561Z,12.35
2018-04-28T00:18:05.360Z,12.31
2018-04-28T00:20:31.131Z,12.26
2018-04-28T00:22:58.723Z,12.24
2018-04-28T00:25:37.685Z,12.20
2018-04-28T00:28:09.540Z,12.18
2018-04-28T00:30:45.860Z,12.15
2018-04-28T00:33:21.863Z,12.08
2018-04-28T00:35:47.631Z,12.02
2018-04-28T00:38:13.413Z,11.98
2018-04-28T00:40:46.956Z,11.99
2018-04-28T00:43:13.608Z,11.94
2018-04-28T00:45:56.171Z,11.89
2018-04-28T00:48:37.752Z,11.85
2018-04-28T00:51:03.511Z,11.80
2018-04-28T00:53:29.295Z,11.77
2018-04-28T00:55:55.227Z,11.72
2018-04-28T01:01:38.331Z,11.62
2018-04-28T01:04:14.308Z,11.57
2018-04-28T01:06:40.096Z,11.51
2018-04-28T01:09:05.867Z,11.47
2018-04-28T01:11:33.723Z,11.45
2018-04-28T01:14:13.859Z,11.47
2018-04-28T01:16:51.844Z,11.47
2018-04-28T01:19:19.492Z,11.53
2018-04-28T01:21:45.258Z,11.57
2018-04-28T01:24:14.835Z,11.61
2018-04-28T01:30:11.179Z,11.64
2018-04-28T01:32:59.947Z,11.67
2018-04-28T01:35:26.715Z,11.67
2018-04-28T01:38:02.646Z,11.66
2018-04-28T01:40:28.431Z,11.66
2018-04-28T01:46:03.554Z,11.52
2018-04-28T01:51:32.716Z,11.40
2018-04-28T01:57:16.061Z,11.35
2018-04-28T01:59:46.923Z,11.33
2018-04-28T02:02:15.648Z,11.28
2018-04-28T02:04:48.619Z,11.25
2018-04-28T02:07:14.391Z,11.19
2018-04-28T02:09:40.996Z,11.22
2018-04-28T02:12:13.711Z,11.19
2018-04-28T02:18:05.155Z,11.17
2018-04-28T02:20:31.939Z,11.19
2018-04-28T02:26:01.405Z,11.19
2018-04-28T02:28:39.019Z,11.18
2018-04-28T02:31:05.731Z,11.18
2018-04-28T02:33:32.352Z,11.18
2018-04-28T02:35:59.120Z,11.20
2018-04-28T02:38:27.733Z,11.26
2018-04-28T02:41:03.419Z,11.33
2018-04-28T02:43:38.129Z,11.36
2018-04-28T02:46:04.678Z,11.37
2018-04-28T02:51:39.804Z,11.45
2018-04-28T02:54:06.519Z,11.48
2018-04-28T02:56:35.351Z,11.50
2018-04-28T02:59:02.078Z,11.54
2018-04-28T03:01:41.807Z,11.60
2018-04-28T03:04:23.472Z,11.63
2018-04-28T03:06:54.260Z,11.66
2018-04-28T03:09:20.011Z,11.67
2018-04-28T03:11:45.775Z,11.69
2018-04-28T03:14:13.458Z,11.70
2018-04-28T03:16:41.224Z,11.69
2018-04-28T03:19:13.975Z,11.69
2018-04-28T03:21:39.767Z,11.69
2018-04-28T03:24:06.564Z,11.71
2018-04-28T03:26:36.380Z,11.72
2018-04-28T03:29:02.164Z,11.78
2018-04-28T03:31:27.927Z,11.80
2018-04-28T03:34:05.575Z,11.81
2018-04-28T03:36:39.381Z,11.80
2018-04-28T03:42:06.807Z,11.69
2018-04-28T03:44:35.559Z,11.62
2018-04-28T03:47:07.205Z,11.55
2018-04-28T03:49:33.026Z,11.51
2018-04-28T03:51:58.811Z,11.45
2018-04-28T03:54:26.547Z,11.40
2018-04-28T03:56:52.320Z,11.38
2018-04-28T03:59:30.349Z,11.38
2018-04-28T04:02:08.344Z,11.33
2018-04-28T04:04:46.851Z,11.26
2018-04-28T04:07:14.459Z,11.18
2018-04-28T04:09:41.045Z,11.22
2018-04-28T04:12:13.833Z,11.18
2018-04-28T04:14:45.567Z,11.19
2018-04-28T04:17:21.372Z,11.16
2018-04-28T04:22:44.319Z,11.14
2018-04-28T04:25:14.022Z,11.14
2018-04-28T04:27:40.690Z,11.17
2018-04-28T04:33:08.048Z,11.17
2018-04-28T04:35:49.843Z,11.19
2018-04-28T04:38:20.584Z,11.21
2018-04-28T04:41:03.354Z,11.24
2018-04-28T04:43:50.223Z,11.26
2018-04-28T04:46:28.992Z,11.28
2018-04-28T04:52:10.988Z,11.34
2018-04-28T04:54:42.598Z,11.36
2018-04-28T04:57:20.847Z,11.39
2018-04-28T04:59:55.647Z,11.42
2018-04-28T05:02:28.524Z,11.50
2018-04-28T05:05:08.928Z,11.57
2018-04-28T05:07:36.663Z,11.67
2018-04-28T05:10:07.471Z,11.75
2018-04-28T05:15:36.919Z,11.83
2018-04-28T05:18:15.139Z,11.86
2018-04-28T05:20:52.980Z,11.90
2018-04-28T05:23:19.851Z,11.94
2018-04-28T05:26:01.636Z,11.96
2018-04-28T05:37:42.697Z,12.27
2018-04-28T05:43:39.008Z,12.54
2018-04-28T05:46:07.734Z,12.75
2018-04-28T05:48:40.663Z,12.96
2018-04-28T05:51:16.559Z,13.15
2018-04-28T05:56:51.771Z,13.38
2018-04-28T05:59:32.495Z,13.44
2018-04-28T06:02:01.252Z,13.50
2018-04-28T06:07:54.344Z,13.82
2018-04-28T06:13:22.175Z,14.20
2018-04-28T06:18:49.096Z,14.52
2018-04-28T06:21:14.887Z,14.69
2018-04-28T06:23:40.635Z,14.79
2018-04-28T06:26:06.463Z,14.88
2018-04-28T06:28:32.189Z,14.92
2018-04-28T06:30:57.975Z,15.02
2018-04-28T06:33:23.810Z,15.09
2018-04-28T06:35:49.662Z,14.98
2018-04-28T06:38:15.365Z,14.98
2018-04-28T06:40:41.138Z,14.99
2018-04-28T06:43:06.925Z,15.00
2018-04-28T06:45:32.696Z,15.07
2018-04-28T06:47:58.492Z,15.17
2018-04-28T06:50:24.235Z,15.18
2018-04-28T06:52:49.991Z,15.18
2018-04-28T06:55:15.810Z,15.19
2018-04-28T06:57:41.536Z,15.22
2018-04-28T07:00:07.547Z,15.32
2018-04-28T07:02:33.320Z,15.46
2018-04-28T07:04:59.092Z,15.59
2018-04-28T07:07:24.861Z,15.74
2018-04-28T07:09:50.623Z,15.89
2018-04-28T07:12:16.391Z,16.02
2018-04-28T07:14:42.172Z,16.10
2018-04-28T07:17:07.975Z,16.17
2018-04-28T07:19:33.728Z,16.29
2018-04-28T07:21:59.547Z,16.45
2018-04-28T07:24:25.295Z,16.55
2018-04-28T07:26:51.247Z,16.66
2018-04-28T07:29:17.052Z,16.67
2018-04-28T07:31:42.979Z,16.66
2018-04-28T07:34:08.735Z,16.74
2018-04-28T07:36:34.524Z,16.80
2018-04-28T07:39:00.580Z,16.81
2018-04-28T07:41:26.339Z,16.97
2018-04-28T07:43:52.112Z,17.22
2018-04-28T07:46:17.904Z,17.39
2018-04-28T07:48:43.670Z,17.45
2018-04-28T07:51:09.499Z,17.48
2018-04-28T07:53:36.898Z,17.51
2018-04-28T07:56:05.807Z,17.44
2018-04-28T07:58:31.716Z,17.45
2018-04-28T08:00:57.939Z,17.47
2018-04-28T08:03:23.722Z,17.49
2018-04-28T08:05:49.555Z,17.47
2018-04-28T08:08:15.315Z,17.49
2018-04-28T08:10:41.115Z,17.57
2018-04-28T08:13:06.883Z,17.61
2018-04-28T08:15:32.855Z,17.76
2018-04-28T08:17:58.674Z,17.93
2018-04-28T08:20:24.443Z,18.16
2018-04-28T08:22:50.231Z,18.40
2018-04-28T08:25:15.995Z,18.60
2018-04-28T08:27:41.795Z,18.72
2018-04-28T08:30:07.547Z,18.80
2018-04-28T08:32:33.779Z,18.84
2018-04-28T08:34:59.577Z,18.83
2018-04-28T08:37:25.442Z,18.83
2018-04-28T08:39:51.180Z,18.84
2018-04-28T08:42:16.984Z,18.73
2018-04-28T08:44:42.771Z,18.77
2018-04-28T08:47:08.591Z,18.79
2018-04-28T08:49:34.700Z,18.82
2018-04-28T08:52:00.623Z,18.85
2018-04-28T08:54:26.399Z,18.88
2018-04-28T08:56:52.197Z,18.97
2018-04-28T08:59:17.980Z,19.03
2018-04-28T09:01:43.739Z,19.06
2018-04-28T09:04:09.491Z,19.17
2018-04-28T09:06:35.261Z,19.30
2018-04-28T09:09:01.063Z,19.41
2018-04-28T09:11:26.836Z,19.36
2018-04-28T09:13:52.591Z,19.35
2018-04-28T09:16:18.346Z,19.41
2018-04-28T09:18:44.099Z,19.47
2018-04-28T09:21:09.847Z,19.61
2018-04-28T09:23:35.607Z,19.71
2018-04-28T09:26:01.352Z,19.63
2018-04-28T09:28:27.139Z,19.53
2018-04-28T09:30:52.890Z,19.42
2018-04-28T09:33:18.777Z,19.35
2018-04-28T09:35:44.522Z,19.33
2018-04-28T09:38:10.310Z,19.23
2018-04-28T09:40:36.048Z,19.27
2018-04-28T09:43:01.820Z,19.35
2018-04-28T09:45:27.635Z,19.47
2018-04-28T09:47:53.415Z,19.58
2018-04-28T09:50:19.174Z,19.72
2018-04-28T09:52:44.957Z,19.86
2018-04-28T09:55:10.711Z,20.11
2018-04-28T09:57:36.735Z,20.33
2018-04-28T10:00:14.727Z,20.49
2018-04-28T10:02:40.690Z,20.74
2018-04-28T10:05:06.443Z,20.85
2018-04-28T10:07:32.217Z,20.70
2018-04-28T10:09:57.999Z,20.63
2018-04-28T10:12:23.775Z,20.62
2018-04-28T10:14:49.538Z,20.69
2018-04-28T10:17:15.323Z,20.83
2018-04-28T10:19:41.101Z,21.01
2018-04-28T10:22:06.854Z,21.18
2018-04-28T10:24:32.655Z,21.33
2018-04-28T10:26:58.395Z,21.35
2018-04-28T10:29:24.172Z,21.41
2018-04-28T10:31:49.928Z,21.53
2018-04-28T10:34:15.709Z,21.60
2018-04-28T10:36:41.495Z,21.57
2018-04-28T10:39:07.280Z,21.39
2018-04-28T10:41:33.036Z,21.39
2018-04-28T10:43:58.804Z,21.38
2018-04-28T10:46:24.595Z,21.38
2018-04-28T10:48:50.339Z,21.28
2018-04-28T10:51:16.107Z,21.35
2018-04-28T10:53:41.960Z,21.40
2018-04-28T10:56:07.663Z,21.32
2018-04-28T10:58:33.705Z,21.25
2018-04-28T11:00:59.495Z,21.17
2018-04-28T11:03:25.257Z,21.19
2018-04-28T11:05:51.003Z,21.26
2018-04-28T11:08:16.782Z,21.26
2018-04-28T11:10:42.518Z,21.27
2018-04-28T11:13:08.255Z,21.06
2018-04-28T11:15:34.015Z,20.78
2018-04-28T11:17:59.775Z,20.56
2018-04-28T11:20:25.570Z,20.42
2018-04-28T11:22:51.361Z,20.26
2018-04-28T11:25:17.108Z,20.11
2018-04-28T11:27:42.907Z,20.04
2018-04-28T11:30:08.664Z,19.98
2018-04-28T11:32:34.432Z,20.07
2018-04-28T11:35:00.190Z,20.23
2018-04-28T11:37:25.951Z,20.40
2018-04-28T11:39:51.717Z,20.58
2018-04-28T11:42:17.471Z,20.67
2018-04-28T11:44:43.239Z,20.82
2018-04-28T11:47:09.016Z,20.91
2018-04-28T11:49:34.939Z,21.00
2018-04-28T11:52:00.711Z,20.86
2018-04-28T11:54:26.489Z,20.75
2018-04-28T11:56:52.255Z,20.56
2018-04-28T11:59:18.032Z,20.40
2018-04-28T12:01:43.787Z,20.23
2018-04-28T12:04:09.580Z,20.06
2018-04-28T12:06:35.352Z,19.75
2018-04-28T12:09:01.441Z,19.64
2018-04-28T12:11:27.213Z,19.56
2018-04-28T12:13:52.988Z,19.49
2018-04-28T12:16:19.001Z,19.47
2018-04-28T12:18:44.752Z,19.60
2018-04-28T12:21:10.560Z,19.90
2018-04-28T12:23:36.340Z,20.20
2018-04-28T12:26:02.107Z,20.46
2018-04-28T12:28:27.872Z,20.59
2018-04-28T12:30:53.703Z,20.67
2018-04-28T12:33:19.455Z,20.89
2018-04-28T12:35:45.290Z,21.26
2018-04-28T12:38:11.011Z,21.53
2018-04-28T12:40:36.803Z,21.68
2018-04-28T12:43:02.551Z,21.72
2018-04-28T12:45:28.332Z,21.66
2018-04-28T12:47:54.103Z,21.73
2018-04-28T12:50:19.897Z,21.76
2018-04-28T12:52:45.648Z,21.93
2018-04-28T12:55:11.501Z,22.10
2018-04-28T12:57:37.330Z,22.27
2018-04-28T13:00:03.043Z,22.40
2018-04-28T13:02:28.935Z,22.44
2018-04-28T13:04:55.411Z,22.42
2018-04-28T13:07:21.232Z,22.50
2018-04-28T13:09:46.988Z,22.38
2018-04-28T13:12:12.747Z,22.09
2018-04-28T13:14:41.464Z,21.94
2018-04-28T13:17:07.239Z,21.71
2018-04-28T13:19:32.979Z,21.45
2018-04-28T13:21:58.750Z,21.51
2018-04-28T13:24:24.525Z,21.45
2018-04-28T13:26:50.291Z,21.45
2018-04-28T13:29:16.076Z,21.67
2018-04-28T13:31:41.908Z,22.02
2018-04-28T13:34:07.655Z,22.03
2018-04-28T13:36:33.428Z,21.95
2018-04-28T13:38:59.212Z,21.89
2018-04-28T13:41:25.038Z,21.83
2018-04-28T13:43:50.796Z,21.75
2018-04-28T13:46:16.580Z,21.64
2018-04-28T13:48:42.344Z,21.42
2018-04-28T13:51:08.219Z,21.27
2018-04-28T13:53:33.951Z,21.25
2018-04-28T13:55:59.784Z,21.15
2018-04-28T13:58:25.528Z,21.09
2018-04-28T14:00:51.596Z,21.15
2018-04-28T14:03:17.388Z,21.26
2018-04-28T14:05:43.455Z,21.37
2018-04-28T14:08:09.198Z,21.33
2018-04-28T14:10:34.947Z,21.32
2018-04-28T14:13:00.769Z,21.32
2018-04-28T14:15:26.513Z,21.37
2018-04-28T14:17:52.330Z,21.47
2018-04-28T14:20:18.079Z,21.43
2018-04-28T14:22:43.846Z,21.45
2018-04-28T14:25:09.635Z,21.45
2018-04-28T14:27:35.515Z,21.51
2018-04-28T14:30:01.304Z,21.63
2018-04-28T14:32:27.133Z,21.64
2018-04-28T14:34:52.896Z,21.68
2018-04-28T14:37:18.652Z,21.64
2018-04-28T14:39:44.430Z,21.60
2018-04-28T14:42:10.212Z,21.67
2018-04-28T14:44:35.954Z,21.73
2018-04-28T14:47:01.724Z,21.64
2018-04-28T14:49:27.497Z,21.71
2018-04-28T14:51:53.286Z,21.70
2018-04-28T14:54:19.043Z,21.92
2018-04-28T14:56:44.816Z,22.03
2018-04-28T14:59:10.580Z,22.02
2018-04-28T15:01:36.392Z,22.10
2018-04-28T15:04:02.179Z,22.09
2018-04-28T15:06:27.933Z,22.05
2018-04-28T15:08:53.715Z,21.78
2018-04-28T15:11:19.483Z,21.69
2018-04-28T15:13:45.264Z,21.64
2018-04-28T15:16:11.008Z,21.67
2018-04-28T15:18:36.762Z,21.69
2018-04-28T15:21:02.523Z,21.65
2018-04-28T15:23:28.295Z,21.56
2018-04-28T15:25:54.043Z,21.47
2018-04-28T15:28:19.846Z,21.45
2018-04-28T15:30:45.559Z,21.48
2018-04-28T15:33:11.387Z,21.47
2018-04-28T15:35:37.188Z,21.58
2018-04-28T15:38:02.972Z,21.65
2018-04-28T15:40:28.767Z,21.69
2018-04-28T15:42:54.527Z,21.66
2018-04-28T15:45:20.290Z,21.73
2018-04-28T15:47:46.079Z,21.73
2018-04-28T15:50:12.031Z,21.60
2018-04-28T15:52:37.811Z,21.45
2018-04-28T15:55:03.592Z,21.40
2018-04-28T15:57:29.358Z,21.39
2018-04-28T15:59:55.104Z,21.36
2018-04-28T16:02:20.856Z,21.30
2018-04-28T16:04:46.636Z,21.21
2018-04-28T16:07:12.392Z,21.19
2018-04-28T16:09:38.144Z,21.17
2018-04-28T16:12:03.956Z,21.12
2018-04-28T16:14:29.719Z,21.13
2018-04-28T16:16:55.475Z,21.05
2018-04-28T16:19:21.256Z,20.90
2018-04-28T16:21:47.043Z,20.78
2018-04-28T16:24:12.804Z,20.86
2018-04-28T16:26:38.571Z,20.86
2018-04-28T16:29:04.332Z,20.79
2018-04-28T16:31:30.108Z,20.72
2018-04-28T16:33:55.870Z,20.67
2018-04-28T16:36:21.904Z,20.67
2018-04-28T16:38:47.711Z,20.56
2018-04-28T16:41:13.452Z,20.44
2018-04-28T16:43:39.226Z,20.29
2018-04-28T16:46:04.990Z,20.26
2018-04-28T16:48:30.764Z,20.27
2018-04-28T16:50:56.529Z,20.29
2018-04-28T16:53:22.280Z,20.28
2018-04-28T16:55:48.071Z,20.27
2018-04-28T16:58:13.833Z,20.28
2018-04-28T17:00:39.719Z,20.27
2018-04-28T17:03:05.539Z,20.30
2018-04-28T17:05:31.307Z,20.21
2018-04-28T17:07:57.056Z,20.05
2018-04-28T17:10:22.839Z,19.96
2018-04-28T17:12:48.607Z,19.83
2018-04-28T17:15:14.379Z,19.72
2018-04-28T17:17:52.272Z,19.66
2018-04-28T17:20:18.289Z,19.57
2018-04-28T17:22:44.036Z,19.49
2018-04-28T17:25:09.846Z,19.41
2018-04-28T17:27:35.593Z,19.31
2018-04-28T17:30:01.376Z,19.21
2018-04-28T17:32:27.148Z,19.13
2018-04-28T17:34:52.916Z,19.05
2018-04-28T17:37:18.720Z,18.98
2018-04-28T17:39:44.443Z,18.94
2018-04-28T17:42:10.195Z,18.87
2018-04-28T17:44:35.991Z,18.80
2018-04-28T17:47:01.735Z,18.74
2018-04-28T17:49:27.517Z,18.68
2018-04-28T17:51:53.256Z,18.62
2018-04-28T17:54:19.054Z,18.54
2018-04-28T17:56:44.807Z,18.45
2018-04-28T17:59:10.714Z,18.38
2018-04-28T18:01:36.501Z,18.30
2018-04-28T18:04:02.319Z,18.21
2018-04-28T18:06:28.144Z,18.13
2018-04-28T18:08:53.963Z,18.05
2018-04-28T18:11:19.748Z,17.98
2018-04-28T18:13:45.514Z,17.95
2018-04-28T18:16:11.323Z,17.91
2018-04-28T18:18:37.091Z,17.88
2018-04-28T18:21:02.879Z,17.85
2018-04-28T18:23:28.682Z,17.83
2018-04-28T18:25:54.496Z,17.81
2018-04-28T18:28:20.272Z,17.79
2018-04-28T18:30:46.084Z,17.76
2018-04-28T18:33:11.839Z,17.73
2018-04-28T18:35:37.627Z,17.68
2018-04-28T18:38:03.385Z,17.65
2018-04-28T18:40:29.180Z,17.62
2018-04-28T18:42:54.947Z,17.63
2018-04-28T18:45:20.755Z,17.62
2018-04-28T18:47:46.560Z,17.58
2018-04-28T18:50:12.363Z,17.56
2018-04-28T18:52:38.128Z,17.55
2018-04-28T18:55:03.925Z,17.55
2018-04-28T18:57:29.671Z,17.55
2018-04-28T18:59:55.427Z,17.55
2018-04-28T19:02:21.207Z,17.36
2018-04-28T19:04:47.000Z,17.19
2018-04-28T19:07:12.815Z,17.12
2018-04-28T19:09:38.606Z,17.01
2018-04-28T19:12:04.363Z,16.94
2018-04-28T19:14:30.137Z,16.92
2018-04-28T19:16:55.907Z,16.87
2018-04-28T19:19:21.671Z,16.84
2018-04-28T19:21:47.583Z,16.79
2018-04-28T19:24:13.549Z,16.74
2018-04-28T19:26:39.337Z,16.65
2018-04-28T19:29:05.096Z,16.66
2018-04-28T19:31:30.891Z,16.52
2018-04-28T19:33:56.652Z,16.46
2018-04-28T19:36:22.432Z,16.39
2018-04-28T19:38:48.192Z,16.35
2018-04-28T19:41:13.968Z,16.29
2018-04-28T19:43:39.727Z,16.30
2018-04-28T19:46:05.544Z,16.27
2018-04-28T19:48:31.423Z,16.23
2018-04-28T19:50:57.140Z,16.21
2018-04-28T19:53:22.915Z,16.13
2018-04-28T19:55:48.715Z,16.09
2018-04-28T19:58:14.540Z,16.07
2018-04-28T20:00:40.303Z,16.06
2018-04-28T20:03:06.111Z,15.99
2018-04-28T20:05:32.017Z,15.99
2018-04-28T20:07:57.774Z,15.98
2018-04-28T20:10:23.581Z,15.98
2018-04-28T20:12:49.324Z,15.96
2018-04-28T20:15:15.125Z,15.95
2018-04-28T20:17:40.894Z,15.91
2018-04-28T20:20:06.720Z,15.85
2018-04-28T20:22:44.886Z,15.83
2018-04-28T20:25:19.827Z,15.82
2018-04-28T20:27:45.599Z,15.79
2018-04-28T20:30:11.437Z,15.79
2018-04-28T20:32:37.141Z,15.79
2018-04-28T20:35:02.898Z,15.74
2018-04-28T20:37:28.700Z,15.72
2018-04-28T20:39:54.444Z,15.69
2018-04-28T20:42:20.212Z,15.70
2018-04-28T20:44:45.975Z,15.68
2018-04-28T20:47:11.738Z,15.64
2018-04-28T20:49:37.497Z,15.61
2018-04-28T20:52:03.268Z,15.63
2018-04-28T20:54:29.035Z,15.61
2018-04-28T20:56:54.819Z,15.63
2018-04-28T20:59:20.651Z,15.62
2018-04-28T21:01:46.424Z,15.58
2018-04-28T21:04:12.177Z,15.57
2018-04-28T21:06:37.928Z,15.56
2018-04-28T21:09:03.696Z,15.58
2018-04-28T21:11:29.474Z,15.57
2018-04-28T21:13:55.436Z,15.58
2018-04-28T21:16:21.199Z,15.55
2018-04-28T21:18:46.972Z,15.53
2018-04-28T21:21:12.748Z,15.50
2018-04-28T21:23:38.528Z,15.50
2018-04-28T21:26:04.348Z,15.50
2018-04-28T21:28:30.111Z,15.46
2018-04-28T21:30:55.887Z,15.44
2018-04-28T21:33:21.675Z,15.43
2018-04-28T21:35:47.467Z,15.41
2018-04-28T21:38:13.222Z,15.42
2018-04-28T21:40:38.972Z,15.41
2018-04-28T21:43:04.758Z,15.39
2018-04-28T21:45:30.513Z,15.38
2018-04-28T21:47:56.299Z,15.37
2018-04-28T21:50:22.043Z,15.35
2018-04-28T21:52:47.807Z,15.32
2018-04-28T21:55:13.546Z,15.31
2018-04-28T21:57:39.311Z,15.30
2018-04-28T22:00:05.066Z,15.29
2018-04-28T22:02:30.844Z,15.29
2018-04-28T22:07:59.113Z,15.23
2018-04-28T22:10:24.883Z,15.20
2018-04-28T22:12:50.647Z,15.19
2018-04-28T22:15:16.517Z,15.16
2018-04-28T22:17:42.203Z,15.11
2018-04-28T22:20:08.040Z,15.09
2018-04-28T22:22:33.807Z,15.08
2018-04-28T22:24:59.598Z,15.07
2018-04-28T22:27:25.345Z,15.05
2018-04-28T22:29:51.111Z,15.02
2018-04-28T22:32:16.906Z,15.02
2018-04-28T22:34:42.655Z,15.00
2018-04-28T22:37:08.423Z,15.02
2018-04-28T22:39:34.196Z,14.98
2018-04-28T22:44:50.925Z,14.93
2018-04-28T22:47:16.678Z,14.92
2018-04-28T22:49:42.675Z,14.88
2018-04-28T22:52:08.436Z,14.87
2018-04-28T22:54:34.216Z,14.88
2018-04-28T22:57:00.017Z,14.87
2018-04-28T22:59:25.799Z,14.86
2018-04-28T23:01:51.593Z,14.86
2018-04-28T23:04:17.366Z,14.86
2018-04-28T23:06:43.181Z,14.85
2018-04-28T23:09:08.930Z,14.84
2018-04-28T23:11:34.704Z,14.83
2018-04-28T23:14:00.451Z,14.80
2018-04-28T23:16:26.236Z,14.77
2018-04-28T23:18:51.992Z,14.73
2018-04-28T23:21:17.742Z,14.73
2018-04-28T23:23:43.504Z,14.74
2018-04-28T23:26:09.251Z,14.74
2018-04-28T23:28:35.038Z,14.69
2018-04-28T23:31:00.787Z,14.67
2018-04-28T23:33:26.535Z,14.66
2018-04-28T23:35:52.311Z,14.69
2018-04-28T23:38:18.067Z,14.64
2018-04-28T23:40:43.825Z,14.66
2018-04-28T23:43:09.626Z,14.67
2018-04-28T23:45:35.382Z,14.66
2018-04-28T23:48:01.148Z,14.63
2018-04-28T23:50:26.895Z,14.60
2018-04-28T23:52:52.679Z,14.58
2018-04-28T23:55:18.427Z,14.61
2018-04-28T23:57:44.199Z,14.57
